sensor_id;sensor_type;location;lat;lon;timestamp;P1;durP1;ratioP1;P2;durP2;ratioP2
1693;SDS011;844;47.058;15.472;2023-05-10T00:01:05;5.10;;;4.60;;
1693;SDS011;844;47.058;15.472;2023-05-10T00:03:36;5.70;;;5.20;;
1693;SDS011;844;47.058;15.472;2023-05-10T00:06:08;5.20;;;4.70;;
1693;SDS011;844;47.058;15.472;2023-05-10T00:08:38;4.40;;;4.00;;
1693;SDS011;844;47.058;15.472;2023-05-10T00:11:08;5.97;;;5.47;;
1693;SDS011;844;47.058;15.472;2023-05-10T00:13:39;4.90;;;4.40;;
1693;SDS011;844;47.058;15.472;2023-05-10T00:16:11;5.00;;;4.50;;
1693;SDS011;844;47.058;15.472;2023-05-10T00:18:41;5.80;;;5.30;;
1693;SDS011;844;47.058;15.472;2023-05-10T00:21:11;5.77;;;5.27;;
1693;SDS011;844;47.058;15.472;2023-05-10T00:23:41;4.33;;;3.93;;
1693;SDS011;844;47.058;15.472;2023-05-10T00:26:11;5.80;;;4.67;;
1693;SDS011;844;47.058;15.472;2023-05-10T00:28:41;4.67;;;4.37;;
1693;SDS011;844;47.058;15.472;2023-05-10T00:31:13;4.30;;;3.90;;
1693;SDS011;844;47.058;15.472;2023-05-10T00:33:43;4.97;;;4.57;;
1693;SDS011;844;47.058;15.472;2023-05-10T00:36:13;5.30;;;4.80;;
1693;SDS011;844;47.058;15.472;2023-05-10T00:38:44;4.77;;;4.47;;
1693;SDS011;844;47.058;15.472;2023-05-10T00:41:14;5.07;;;4.57;;
1693;SDS011;844;47.058;15.472;2023-05-10T00:43:44;6.80;;;4.73;;
1693;SDS011;844;47.058;15.472;2023-05-10T00:46:17;5.07;;;4.57;;
1693;SDS011;844;47.058;15.472;2023-05-10T00:48:47;4.87;;;4.47;;
1693;SDS011;844;47.058;15.472;2023-05-10T00:51:17;4.97;;;4.37;;
1693;SDS011;844;47.058;15.472;2023-05-10T00:53:48;7.03;;;4.70;;
1693;SDS011;844;47.058;15.472;2023-05-10T00:56:18;5.37;;;4.73;;
1693;SDS011;844;47.058;15.472;2023-05-10T00:58:54;3.90;;;3.60;;
1693;SDS011;844;47.058;15.472;2023-05-10T01:01:27;6.60;;;5.07;;
1693;SDS011;844;47.058;15.472;2023-05-10T01:03:58;5.17;;;4.73;;
1693;SDS011;844;47.058;15.472;2023-05-10T01:06:29;4.20;;;3.90;;
1693;SDS011;844;47.058;15.472;2023-05-10T01:08:59;4.70;;;4.30;;
1693;SDS011;844;47.058;15.472;2023-05-10T01:11:29;4.40;;;3.80;;
1693;SDS011;844;47.058;15.472;2023-05-10T01:14:00;4.47;;;4.10;;
1693;SDS011;844;47.058;15.472;2023-05-10T01:16:33;7.40;;;4.67;;
1693;SDS011;844;47.058;15.472;2023-05-10T01:19:06;5.27;;;4.27;;
1693;SDS011;844;47.058;15.472;2023-05-10T01:21:43;4.90;;;4.37;;
1693;SDS011;844;47.058;15.472;2023-05-10T01:33:44;5.27;;;4.77;;
1693;SDS011;844;47.058;15.472;2023-05-10T01:36:21;4.20;;;3.90;;
1693;SDS011;844;47.058;15.472;2023-05-10T01:38:57;5.53;;;5.00;;
1693;SDS011;844;47.058;15.472;2023-05-10T01:41:33;5.10;;;4.60;;
1693;SDS011;844;47.058;15.472;2023-05-10T01:44:11;5.60;;;5.10;;
1693;SDS011;844;47.058;15.472;2023-05-10T01:46:48;6.07;;;5.53;;
1693;SDS011;844;47.058;15.472;2023-05-10T01:49:23;5.00;;;4.53;;
1693;SDS011;844;47.058;15.472;2023-05-10T01:51:57;6.00;;;5.50;;
1693;SDS011;844;47.058;15.472;2023-05-10T01:54:41;7.07;;;5.40;;
1693;SDS011;844;47.058;15.472;2023-05-10T01:57:13;4.93;;;4.30;;
1693;SDS011;844;47.058;15.472;2023-05-10T01:59:44;5.73;;;5.33;;
1693;SDS011;844;47.058;15.472;2023-05-10T02:02:15;5.50;;;4.90;;
1693;SDS011;844;47.058;15.472;2023-05-10T02:04:50;4.60;;;4.20;;
1693;SDS011;844;47.058;15.472;2023-05-10T02:07:21;4.87;;;4.53;;
1693;SDS011;844;47.058;15.472;2023-05-10T02:09:52;7.90;;;5.10;;
1693;SDS011;844;47.058;15.472;2023-05-10T02:12:23;5.93;;;4.20;;
1693;SDS011;844;47.058;15.472;2023-05-10T02:14:55;4.77;;;4.37;;
1693;SDS011;844;47.058;15.472;2023-05-10T02:17:27;5.57;;;5.07;;
1693;SDS011;844;47.058;15.472;2023-05-10T02:20:01;5.77;;;4.93;;
1693;SDS011;844;47.058;15.472;2023-05-10T02:22:33;4.97;;;4.57;;
1693;SDS011;844;47.058;15.472;2023-05-10T02:25:05;5.70;;;5.20;;
1693;SDS011;844;47.058;15.472;2023-05-10T02:27:37;6.83;;;5.60;;
1693;SDS011;844;47.058;15.472;2023-05-10T02:30:08;5.77;;;5.23;;
1693;SDS011;844;47.058;15.472;2023-05-10T02:32:40;5.30;;;4.80;;
1693;SDS011;844;47.058;15.472;2023-05-10T02:35:12;5.30;;;4.70;;
1693;SDS011;844;47.058;15.472;2023-05-10T02:37:43;5.90;;;5.23;;
1693;SDS011;844;47.058;15.472;2023-05-10T02:40:13;4.90;;;4.50;;
1693;SDS011;844;47.058;15.472;2023-05-10T02:42:47;8.00;;;5.83;;
1693;SDS011;844;47.058;15.472;2023-05-10T02:45:20;4.13;;;3.83;;
1693;SDS011;844;47.058;15.472;2023-05-10T02:47:54;8.13;;;4.87;;
1693;SDS011;844;47.058;15.472;2023-05-10T02:50:26;8.47;;;5.00;;
1693;SDS011;844;47.058;15.472;2023-05-10T02:52:59;4.90;;;4.40;;
1693;SDS011;844;47.058;15.472;2023-05-10T02:55:32;5.47;;;4.97;;
1693;SDS011;844;47.058;15.472;2023-05-10T02:58:06;6.17;;;5.67;;
1693;SDS011;844;47.058;15.472;2023-05-10T03:00:36;7.17;;;5.13;;
1693;SDS011;844;47.058;15.472;2023-05-10T03:03:06;5.97;;;5.57;;
1693;SDS011;844;47.058;15.472;2023-05-10T03:05:38;5.60;;;5.10;;
1693;SDS011;844;47.058;15.472;2023-05-10T03:08:08;5.07;;;4.57;;
1693;SDS011;844;47.058;15.472;2023-05-10T03:10:40;4.97;;;4.50;;
1693;SDS011;844;47.058;15.472;2023-05-10T03:13:19;4.97;;;4.57;;
1693;SDS011;844;47.058;15.472;2023-05-10T03:15:55;5.30;;;4.80;;
1693;SDS011;844;47.058;15.472;2023-05-10T03:18:32;5.10;;;4.70;;
1693;SDS011;844;47.058;15.472;2023-05-10T03:21:09;4.43;;;4.13;;
1693;SDS011;844;47.058;15.472;2023-05-10T03:23:43;4.80;;;4.40;;
1693;SDS011;844;47.058;15.472;2023-05-10T03:26:17;5.40;;;4.53;;
1693;SDS011;844;47.058;15.472;2023-05-10T03:28:49;6.20;;;5.60;;
1693;SDS011;844;47.058;15.472;2023-05-10T03:31:20;5.43;;;4.90;;
1693;SDS011;844;47.058;15.472;2023-05-10T03:33:51;5.80;;;5.20;;
1693;SDS011;844;47.058;15.472;2023-05-10T03:36:23;5.03;;;4.63;;
1693;SDS011;844;47.058;15.472;2023-05-10T03:38:53;8.30;;;5.33;;
1693;SDS011;844;47.058;15.472;2023-05-10T03:41:24;5.73;;;5.33;;
1693;SDS011;844;47.058;15.472;2023-05-10T03:43:55;4.97;;;4.47;;
1693;SDS011;844;47.058;15.472;2023-05-10T03:46:25;5.97;;;4.80;;
1693;SDS011;844;47.058;15.472;2023-05-10T03:48:55;5.60;;;5.20;;
1693;SDS011;844;47.058;15.472;2023-05-10T03:51:28;6.33;;;5.30;;
1693;SDS011;844;47.058;15.472;2023-05-10T03:53:59;6.13;;;4.90;;
1693;SDS011;844;47.058;15.472;2023-05-10T03:56:29;7.47;;;5.20;;
1693;SDS011;844;47.058;15.472;2023-05-10T03:58:59;5.43;;;4.73;;
1693;SDS011;844;47.058;15.472;2023-05-10T04:01:34;6.30;;;5.30;;
1693;SDS011;844;47.058;15.472;2023-05-10T04:04:04;5.87;;;5.33;;
1693;SDS011;844;47.058;15.472;2023-05-10T04:06:37;6.23;;;5.63;;
1693;SDS011;844;47.058;15.472;2023-05-10T04:09:07;5.87;;;5.37;;
1693;SDS011;844;47.058;15.472;2023-05-10T04:11:38;7.47;;;5.87;;
1693;SDS011;844;47.058;15.472;2023-05-10T04:14:08;5.43;;;4.93;;
1693;SDS011;844;47.058;15.472;2023-05-10T04:16:37;6.63;;;5.60;;
1693;SDS011;844;47.058;15.472;2023-05-10T04:19:08;7.00;;;6.40;;
1693;SDS011;844;47.058;15.472;2023-05-10T04:21:40;6.20;;;5.70;;
1693;SDS011;844;47.058;15.472;2023-05-10T04:24:10;6.13;;;5.00;;
1693;SDS011;844;47.058;15.472;2023-05-10T04:26:40;7.00;;;5.63;;
1693;SDS011;844;47.058;15.472;2023-05-10T04:29:11;6.53;;;6.03;;
1693;SDS011;844;47.058;15.472;2023-05-10T04:31:40;5.50;;;5.10;;
1693;SDS011;844;47.058;15.472;2023-05-10T04:34:10;5.77;;;5.27;;
1693;SDS011;844;47.058;15.472;2023-05-10T04:36:42;7.27;;;6.10;;
1693;SDS011;844;47.058;15.472;2023-05-10T04:39:12;6.30;;;5.80;;
1693;SDS011;844;47.058;15.472;2023-05-10T04:41:43;5.07;;;4.67;;
1693;SDS011;844;47.058;15.472;2023-05-10T04:44:15;6.50;;;5.90;;
1693;SDS011;844;47.058;15.472;2023-05-10T04:46:45;5.93;;;5.33;;
1693;SDS011;844;47.058;15.472;2023-05-10T04:49:16;8.00;;;6.57;;
1693;SDS011;844;47.058;15.472;2023-05-10T04:51:47;5.80;;;5.23;;
1693;SDS011;844;47.058;15.472;2023-05-10T04:54:18;6.80;;;6.07;;
1693;SDS011;844;47.058;15.472;2023-05-10T04:56:49;6.47;;;5.90;;
1693;SDS011;844;47.058;15.472;2023-05-10T04:59:20;5.50;;;5.00;;
1693;SDS011;844;47.058;15.472;2023-05-10T05:01:50;7.93;;;6.00;;
1693;SDS011;844;47.058;15.472;2023-05-10T05:04:20;6.87;;;6.27;;
1693;SDS011;844;47.058;15.472;2023-05-10T05:06:53;5.80;;;5.40;;
1693;SDS011;844;47.058;15.472;2023-05-10T05:09:24;7.13;;;6.60;;
1693;SDS011;844;47.058;15.472;2023-05-10T05:11:54;6.40;;;5.80;;
1693;SDS011;844;47.058;15.472;2023-05-10T05:14:24;6.43;;;5.30;;
1693;SDS011;844;47.058;15.472;2023-05-10T05:16:54;5.30;;;4.90;;
1693;SDS011;844;47.058;15.472;2023-05-10T05:19:25;6.33;;;5.83;;
1693;SDS011;844;47.058;15.472;2023-05-10T05:21:57;5.63;;;5.13;;
1693;SDS011;844;47.058;15.472;2023-05-10T05:24:27;7.67;;;6.03;;
1693;SDS011;844;47.058;15.472;2023-05-10T05:26:57;6.93;;;6.33;;
1693;SDS011;844;47.058;15.472;2023-05-10T05:29:28;6.20;;;5.70;;
1693;SDS011;844;47.058;15.472;2023-05-10T05:31:58;5.87;;;5.47;;
1693;SDS011;844;47.058;15.472;2023-05-10T05:34:28;6.77;;;6.07;;
1693;SDS011;844;47.058;15.472;2023-05-10T05:37:01;6.00;;;5.50;;
1693;SDS011;844;47.058;15.472;2023-05-10T05:39:31;6.77;;;6.10;;
1693;SDS011;844;47.058;15.472;2023-05-10T05:42:01;5.67;;;5.17;;
1693;SDS011;844;47.058;15.472;2023-05-10T05:44:31;7.70;;;6.20;;
1693;SDS011;844;47.058;15.472;2023-05-10T05:47:02;8.17;;;6.53;;
1693;SDS011;844;47.058;15.472;2023-05-10T05:49:32;8.00;;;5.67;;
1693;SDS011;844;47.058;15.472;2023-05-10T05:52:04;9.03;;;6.20;;
1693;SDS011;844;47.058;15.472;2023-05-10T05:54:34;7.00;;;6.30;;
1693;SDS011;844;47.058;15.472;2023-05-10T05:57:04;6.50;;;5.90;;
1693;SDS011;844;47.058;15.472;2023-05-10T05:59:35;6.57;;;5.97;;
1693;SDS011;844;47.058;15.472;2023-05-10T06:02:09;6.73;;;6.13;;
1693;SDS011;844;47.058;15.472;2023-05-10T06:04:39;6.30;;;5.70;;
1693;SDS011;844;47.058;15.472;2023-05-10T06:07:12;6.60;;;6.00;;
1693;SDS011;844;47.058;15.472;2023-05-10T06:09:42;6.90;;;6.20;;
1693;SDS011;844;47.058;15.472;2023-05-10T06:12:13;5.90;;;5.43;;
1693;SDS011;844;47.058;15.472;2023-05-10T06:14:43;8.43;;;6.00;;
1693;SDS011;844;47.058;15.472;2023-05-10T06:17:14;5.73;;;5.33;;
1693;SDS011;844;47.058;15.472;2023-05-10T06:19:44;7.83;;;7.23;;
1693;SDS011;844;47.058;15.472;2023-05-10T06:22:15;7.60;;;6.90;;
1693;SDS011;844;47.058;15.472;2023-05-10T06:24:45;7.87;;;6.17;;
1693;SDS011;844;47.058;15.472;2023-05-10T06:27:15;6.40;;;5.87;;
1693;SDS011;844;47.058;15.472;2023-05-10T06:29:45;6.80;;;6.30;;
1693;SDS011;844;47.058;15.472;2023-05-10T06:32:22;8.00;;;5.90;;
1693;SDS011;844;47.058;15.472;2023-05-10T06:34:53;6.93;;;6.13;;
1693;SDS011;844;47.058;15.472;2023-05-10T06:37:25;7.97;;;7.17;;
1693;SDS011;844;47.058;15.472;2023-05-10T06:39:56;7.90;;;6.40;;
1693;SDS011;844;47.058;15.472;2023-05-10T06:42:26;7.80;;;7.10;;
1693;SDS011;844;47.058;15.472;2023-05-10T06:44:56;9.10;;;6.23;;
1693;SDS011;844;47.058;15.472;2023-05-10T06:47:25;6.80;;;6.20;;
1693;SDS011;844;47.058;15.472;2023-05-10T06:49:55;7.50;;;6.80;;
1693;SDS011;844;47.058;15.472;2023-05-10T06:52:27;7.50;;;6.70;;
1693;SDS011;844;47.058;15.472;2023-05-10T06:54:57;8.30;;;7.10;;
1693;SDS011;844;47.058;15.472;2023-05-10T06:57:28;7.10;;;6.50;;
1693;SDS011;844;47.058;15.472;2023-05-10T06:59:58;7.10;;;6.50;;
1693;SDS011;844;47.058;15.472;2023-05-10T07:02:28;13.60;;;8.30;;
1693;SDS011;844;47.058;15.472;2023-05-10T07:04:58;6.40;;;5.80;;
1693;SDS011;844;47.058;15.472;2023-05-10T07:07:31;6.93;;;6.33;;
1693;SDS011;844;47.058;15.472;2023-05-10T07:10:02;6.93;;;6.23;;
1693;SDS011;844;47.058;15.472;2023-05-10T07:12:33;11.00;;;6.77;;
1693;SDS011;844;47.058;15.472;2023-05-10T07:15:05;8.80;;;7.60;;
1693;SDS011;844;47.058;15.472;2023-05-10T07:17:36;8.90;;;6.60;;
1693;SDS011;844;47.058;15.472;2023-05-10T07:20:09;8.20;;;7.40;;
1693;SDS011;844;47.058;15.472;2023-05-10T07:22:42;7.23;;;6.60;;
1693;SDS011;844;47.058;15.472;2023-05-10T07:25:12;5.97;;;5.47;;
1693;SDS011;844;47.058;15.472;2023-05-10T07:27:43;6.77;;;6.17;;
1693;SDS011;844;47.058;15.472;2023-05-10T07:30:15;6.77;;;6.17;;
1693;SDS011;844;47.058;15.472;2023-05-10T07:32:45;6.70;;;6.13;;
1693;SDS011;844;47.058;15.472;2023-05-10T07:35:15;9.50;;;7.73;;
1693;SDS011;844;47.058;15.472;2023-05-10T07:37:46;8.80;;;7.50;;
1693;SDS011;844;47.058;15.472;2023-05-10T07:40:17;6.47;;;5.87;;
1693;SDS011;844;47.058;15.472;2023-05-10T07:42:47;8.17;;;7.37;;
1693;SDS011;844;47.058;15.472;2023-05-10T07:45:19;7.60;;;6.90;;
1693;SDS011;844;47.058;15.472;2023-05-10T07:47:50;8.20;;;7.47;;
1693;SDS011;844;47.058;15.472;2023-05-10T07:50:20;5.53;;;5.03;;
1693;SDS011;844;47.058;15.472;2023-05-10T07:52:52;8.50;;;5.87;;
1693;SDS011;844;47.058;15.472;2023-05-10T07:55:22;7.70;;;7.00;;
1693;SDS011;844;47.058;15.472;2023-05-10T07:57:52;10.37;;;8.13;;
1693;SDS011;844;47.058;15.472;2023-05-10T08:00:23;7.43;;;6.83;;
1693;SDS011;844;47.058;15.472;2023-05-10T08:02:53;6.67;;;6.17;;
1693;SDS011;844;47.058;15.472;2023-05-10T08:05:23;6.57;;;5.97;;
1693;SDS011;844;47.058;15.472;2023-05-10T08:07:55;8.87;;;8.07;;
1693;SDS011;844;47.058;15.472;2023-05-10T08:10:25;8.93;;;7.60;;
1693;SDS011;844;47.058;15.472;2023-05-10T08:12:54;7.50;;;6.80;;
1693;SDS011;844;47.058;15.472;2023-05-10T08:15:25;10.00;;;8.70;;
1693;SDS011;844;47.058;15.472;2023-05-10T08:17:56;7.13;;;6.40;;
1693;SDS011;844;47.058;15.472;2023-05-10T08:20:26;7.70;;;6.87;;
1693;SDS011;844;47.058;15.472;2023-05-10T08:22:58;7.97;;;7.23;;
1693;SDS011;844;47.058;15.472;2023-05-10T08:25:28;6.13;;;5.60;;
1693;SDS011;844;47.058;15.472;2023-05-10T08:27:59;8.17;;;7.40;;
1693;SDS011;844;47.058;15.472;2023-05-10T08:30:29;8.33;;;7.40;;
1693;SDS011;844;47.058;15.472;2023-05-10T08:32:59;6.87;;;6.27;;
1693;SDS011;844;47.058;15.472;2023-05-10T08:35:29;7.20;;;6.50;;
1693;SDS011;844;47.058;15.472;2023-05-10T08:38:02;9.20;;;8.30;;
1693;SDS011;844;47.058;15.472;2023-05-10T08:40:34;8.70;;;7.73;;
1693;SDS011;844;47.058;15.472;2023-05-10T08:43:05;8.10;;;7.30;;
1693;SDS011;844;47.058;15.472;2023-05-10T08:45:37;9.00;;;8.10;;
1693;SDS011;844;47.058;15.472;2023-05-10T08:48:08;7.10;;;6.53;;
1693;SDS011;844;47.058;15.472;2023-05-10T08:50:39;6.40;;;5.87;;
1693;SDS011;844;47.058;15.472;2023-05-10T08:53:12;6.63;;;5.97;;
1693;SDS011;844;47.058;15.472;2023-05-10T08:55:42;8.77;;;7.27;;
1693;SDS011;844;47.058;15.472;2023-05-10T08:58:12;9.43;;;6.50;;
1693;SDS011;844;47.058;15.472;2023-05-10T09:00:43;8.03;;;7.37;;
1693;SDS011;844;47.058;15.472;2023-05-10T09:03:13;11.30;;;8.57;;
1693;SDS011;844;47.058;15.472;2023-05-10T09:05:44;7.60;;;6.90;;
1693;SDS011;844;47.058;15.472;2023-05-10T09:08:16;8.17;;;7.37;;
1693;SDS011;844;47.058;15.472;2023-05-10T09:10:47;10.90;;;7.53;;
1693;SDS011;844;47.058;15.472;2023-05-10T09:13:19;8.47;;;7.70;;
1693;SDS011;844;47.058;15.472;2023-05-10T09:15:50;5.97;;;5.47;;
1693;SDS011;844;47.058;15.472;2023-05-10T09:18:22;6.87;;;6.00;;
1693;SDS011;844;47.058;15.472;2023-05-10T09:20:54;7.50;;;6.90;;
1693;SDS011;844;47.058;15.472;2023-05-10T09:23:26;9.77;;;6.60;;
1693;SDS011;844;47.058;15.472;2023-05-10T09:26:02;12.83;;;7.33;;
1693;SDS011;844;47.058;15.472;2023-05-10T09:28:33;6.83;;;6.27;;
1693;SDS011;844;47.058;15.472;2023-05-10T09:31:03;7.50;;;6.90;;
1693;SDS011;844;47.058;15.472;2023-05-10T09:33:41;7.20;;;6.50;;
1693;SDS011;844;47.058;15.472;2023-05-10T09:36:14;7.77;;;7.07;;
1693;SDS011;844;47.058;15.472;2023-05-10T09:38:47;7.57;;;6.43;;
1693;SDS011;844;47.058;15.472;2023-05-10T09:41:19;7.87;;;7.13;;
1693;SDS011;844;47.058;15.472;2023-05-10T09:43:50;7.17;;;6.47;;
1693;SDS011;844;47.058;15.472;2023-05-10T09:46:25;7.53;;;6.83;;
1693;SDS011;844;47.058;15.472;2023-05-10T09:48:55;7.90;;;7.10;;
1693;SDS011;844;47.058;15.472;2023-05-10T09:51:26;8.17;;;7.43;;
1693;SDS011;844;47.058;15.472;2023-05-10T09:54:09;8.87;;;8.03;;
1693;SDS011;844;47.058;15.472;2023-05-10T09:56:40;8.43;;;6.97;;
1693;SDS011;844;47.058;15.472;2023-05-10T09:59:11;7.90;;;6.37;;
1693;SDS011;844;47.058;15.472;2023-05-10T10:01:42;8.10;;;7.40;;
1693;SDS011;844;47.058;15.472;2023-05-10T10:04:12;7.97;;;7.17;;
1693;SDS011;844;47.058;15.472;2023-05-10T10:06:43;7.23;;;6.63;;
1693;SDS011;844;47.058;15.472;2023-05-10T10:09:15;8.30;;;7.50;;
1693;SDS011;844;47.058;15.472;2023-05-10T10:11:48;6.83;;;6.30;;
1693;SDS011;844;47.058;15.472;2023-05-10T10:14:18;6.70;;;6.20;;
1693;SDS011;844;47.058;15.472;2023-05-10T10:16:50;5.20;;;4.60;;
1693;SDS011;844;47.058;15.472;2023-05-10T10:19:34;6.30;;;5.10;;
1693;SDS011;844;47.058;15.472;2023-05-10T10:22:05;7.70;;;6.97;;
1693;SDS011;844;47.058;15.472;2023-05-10T10:24:40;7.47;;;6.20;;
1693;SDS011;844;47.058;15.472;2023-05-10T10:27:14;7.30;;;6.73;;
1693;SDS011;844;47.058;15.472;2023-05-10T10:29:59;7.60;;;6.97;;
1693;SDS011;844;47.058;15.472;2023-05-10T10:32:37;8.20;;;7.40;;
1693;SDS011;844;47.058;15.472;2023-05-10T10:35:18;8.50;;;6.87;;
1693;SDS011;844;47.058;15.472;2023-05-10T10:37:50;6.80;;;6.10;;
1693;SDS011;844;47.058;15.472;2023-05-10T10:40:26;6.40;;;5.80;;
1693;SDS011;844;47.058;15.472;2023-05-10T10:46:09;7.50;;;6.90;;
1693;SDS011;844;47.058;15.472;2023-05-10T10:48:47;8.40;;;6.20;;
1693;SDS011;844;47.058;15.472;2023-05-10T10:51:18;6.67;;;6.10;;
1693;SDS011;844;47.058;15.472;2023-05-10T10:53:48;10.20;;;9.37;;
1693;SDS011;844;47.058;15.472;2023-05-10T10:56:21;9.37;;;8.67;;
1693;SDS011;844;47.058;15.472;2023-05-10T10:58:52;7.83;;;7.03;;
1693;SDS011;844;47.058;15.472;2023-05-10T11:01:23;7.60;;;6.83;;
1693;SDS011;844;47.058;15.472;2023-05-10T11:06:49;8.43;;;7.73;;
1693;SDS011;844;47.058;15.472;2023-05-10T11:09:20;9.10;;;8.30;;
1693;SDS011;844;47.058;15.472;2023-05-10T11:11:55;7.00;;;6.33;;
1693;SDS011;844;47.058;15.472;2023-05-10T11:14:27;11.33;;;7.67;;
1693;SDS011;844;47.058;15.472;2023-05-10T11:17:01;9.97;;;6.83;;
1693;SDS011;844;47.058;15.472;2023-05-10T11:19:32;8.77;;;8.07;;
1693;SDS011;844;47.058;15.472;2023-05-10T11:22:12;7.43;;;6.70;;
1693;SDS011;844;47.058;15.472;2023-05-10T11:24:55;8.33;;;7.57;;
1693;SDS011;844;47.058;15.472;2023-05-10T11:27:28;7.47;;;6.87;;
1693;SDS011;844;47.058;15.472;2023-05-10T11:30:00;7.40;;;6.80;;
1693;SDS011;844;47.058;15.472;2023-05-10T11:32:34;6.53;;;6.03;;
1693;SDS011;844;47.058;15.472;2023-05-10T11:35:07;7.93;;;7.43;;
1693;SDS011;844;47.058;15.472;2023-05-10T11:37:38;8.10;;;7.50;;
1693;SDS011;844;47.058;15.472;2023-05-10T11:40:11;8.43;;;7.70;;
1693;SDS011;844;47.058;15.472;2023-05-10T11:42:44;9.37;;;8.57;;
1693;SDS011;844;47.058;15.472;2023-05-10T11:45:14;11.60;;;8.77;;
1693;SDS011;844;47.058;15.472;2023-05-10T11:47:45;7.50;;;6.80;;
1693;SDS011;844;47.058;15.472;2023-05-10T11:50:18;7.73;;;7.13;;
1693;SDS011;844;47.058;15.472;2023-05-10T11:52:50;8.57;;;7.83;;
1693;SDS011;844;47.058;15.472;2023-05-10T11:55:21;7.90;;;7.20;;
1693;SDS011;844;47.058;15.472;2023-05-10T11:57:54;8.70;;;8.00;;
1693;SDS011;844;47.058;15.472;2023-05-10T12:00:24;7.27;;;6.77;;
1693;SDS011;844;47.058;15.472;2023-05-10T12:02:54;8.57;;;7.77;;
1693;SDS011;844;47.058;15.472;2023-05-10T12:05:24;7.27;;;6.63;;
1693;SDS011;844;47.058;15.472;2023-05-10T12:10:41;10.13;;;7.47;;
1693;SDS011;844;47.058;15.472;2023-05-10T12:16:03;6.83;;;6.23;;
1693;SDS011;844;47.058;15.472;2023-05-10T12:18:43;6.77;;;6.23;;
1693;SDS011;844;47.058;15.472;2023-05-10T12:21:14;6.70;;;5.90;;
1693;SDS011;844;47.058;15.472;2023-05-10T12:23:45;7.30;;;6.60;;
1693;SDS011;844;47.058;15.472;2023-05-10T12:26:17;7.40;;;6.83;;
1693;SDS011;844;47.058;15.472;2023-05-10T12:28:52;6.57;;;6.03;;
1693;SDS011;844;47.058;15.472;2023-05-10T12:31:24;5.07;;;4.77;;
1693;SDS011;844;47.058;15.472;2023-05-10T12:33:55;6.80;;;6.20;;
1693;SDS011;844;47.058;15.472;2023-05-10T12:36:26;6.43;;;5.83;;
1693;SDS011;844;47.058;15.472;2023-05-10T12:39:01;5.97;;;5.47;;
1693;SDS011;844;47.058;15.472;2023-05-10T12:41:32;5.03;;;4.63;;
1693;SDS011;844;47.058;15.472;2023-05-10T12:44:04;6.70;;;6.20;;
1693;SDS011;844;47.058;15.472;2023-05-10T12:46:34;7.03;;;6.33;;
1693;SDS011;844;47.058;15.472;2023-05-10T12:49:04;6.10;;;5.03;;
1693;SDS011;844;47.058;15.472;2023-05-10T12:51:36;5.40;;;4.90;;
1693;SDS011;844;47.058;15.472;2023-05-10T12:54:07;5.87;;;5.37;;
1693;SDS011;844;47.058;15.472;2023-05-10T12:56:36;7.03;;;6.43;;
1693;SDS011;844;47.058;15.472;2023-05-10T12:59:10;6.07;;;5.57;;
1693;SDS011;844;47.058;15.472;2023-05-10T13:01:40;4.57;;;4.27;;
1693;SDS011;844;47.058;15.472;2023-05-10T13:04:11;6.60;;;6.20;;
1693;SDS011;844;47.058;15.472;2023-05-10T13:06:41;6.27;;;5.57;;
1693;SDS011;844;47.058;15.472;2023-05-10T13:09:11;5.07;;;4.67;;
1693;SDS011;844;47.058;15.472;2023-05-10T13:11:43;5.07;;;4.57;;
1693;SDS011;844;47.058;15.472;2023-05-10T13:14:16;7.23;;;5.83;;
1693;SDS011;844;47.058;15.472;2023-05-10T13:16:47;6.43;;;5.90;;
1693;SDS011;844;47.058;15.472;2023-05-10T13:19:18;6.10;;;5.60;;
1693;SDS011;844;47.058;15.472;2023-05-10T13:21:49;7.07;;;6.47;;
1693;SDS011;844;47.058;15.472;2023-05-10T13:24:20;7.40;;;6.80;;
1693;SDS011;844;47.058;15.472;2023-05-10T13:26:51;6.93;;;6.43;;
1693;SDS011;844;47.058;15.472;2023-05-10T13:29:23;7.10;;;6.40;;
1693;SDS011;844;47.058;15.472;2023-05-10T13:31:53;7.60;;;6.97;;
1693;SDS011;844;47.058;15.472;2023-05-10T13:34:24;7.37;;;6.63;;
1693;SDS011;844;47.058;15.472;2023-05-10T13:36:54;6.60;;;6.00;;
1693;SDS011;844;47.058;15.472;2023-05-10T13:39:24;6.67;;;6.10;;
1693;SDS011;844;47.058;15.472;2023-05-10T13:41:56;7.00;;;6.50;;
1693;SDS011;844;47.058;15.472;2023-05-10T13:44:28;6.83;;;6.23;;
1693;SDS011;844;47.058;15.472;2023-05-10T13:47:00;7.40;;;6.70;;
1693;SDS011;844;47.058;15.472;2023-05-10T13:49:31;5.30;;;4.90;;
1693;SDS011;844;47.058;15.472;2023-05-10T13:52:02;6.57;;;6.13;;
1693;SDS011;844;47.058;15.472;2023-05-10T13:54:34;7.00;;;6.50;;
1693;SDS011;844;47.058;15.472;2023-05-10T13:57:05;5.60;;;5.20;;
1693;SDS011;844;47.058;15.472;2023-05-10T13:59:38;5.67;;;5.20;;
1693;SDS011;844;47.058;15.472;2023-05-10T14:02:07;7.00;;;6.50;;
1693;SDS011;844;47.058;15.472;2023-05-10T14:04:40;7.00;;;6.30;;
1693;SDS011;844;47.058;15.472;2023-05-10T14:07:10;7.50;;;6.90;;
1693;SDS011;844;47.058;15.472;2023-05-10T14:09:41;6.63;;;6.13;;
1693;SDS011;844;47.058;15.472;2023-05-10T14:12:11;6.10;;;5.73;;
1693;SDS011;844;47.058;15.472;2023-05-10T14:14:44;6.30;;;5.80;;
1693;SDS011;844;47.058;15.472;2023-05-10T14:17:15;6.70;;;6.07;;
1693;SDS011;844;47.058;15.472;2023-05-10T14:19:45;7.23;;;6.53;;
1693;SDS011;844;47.058;15.472;2023-05-10T14:22:17;6.90;;;6.30;;
1693;SDS011;844;47.058;15.472;2023-05-10T14:24:47;5.70;;;5.27;;
1693;SDS011;844;47.058;15.472;2023-05-10T14:27:18;7.57;;;6.90;;
1693;SDS011;844;47.058;15.472;2023-05-10T14:29:52;6.70;;;6.10;;
1693;SDS011;844;47.058;15.472;2023-05-10T14:32:23;6.63;;;6.13;;
1693;SDS011;844;47.058;15.472;2023-05-10T14:34:55;6.33;;;5.93;;
1693;SDS011;844;47.058;15.472;2023-05-10T14:37:25;7.70;;;7.10;;
1693;SDS011;844;47.058;15.472;2023-05-10T14:39:55;7.10;;;6.60;;
1693;SDS011;844;47.058;15.472;2023-05-10T14:42:25;7.67;;;7.13;;
1693;SDS011;844;47.058;15.472;2023-05-10T14:44:57;7.57;;;6.87;;
1693;SDS011;844;47.058;15.472;2023-05-10T14:47:27;6.17;;;5.67;;
1693;SDS011;844;47.058;15.472;2023-05-10T14:49:57;7.33;;;6.73;;
1693;SDS011;844;47.058;15.472;2023-05-10T14:52:28;6.90;;;6.40;;
1693;SDS011;844;47.058;15.472;2023-05-10T14:55:00;5.90;;;5.40;;
1693;SDS011;844;47.058;15.472;2023-05-10T14:57:31;7.13;;;6.43;;
1693;SDS011;844;47.058;15.472;2023-05-10T15:00:04;6.13;;;5.73;;
1693;SDS011;844;47.058;15.472;2023-05-10T15:02:37;6.37;;;5.77;;
1693;SDS011;844;47.058;15.472;2023-05-10T15:05:08;6.30;;;5.80;;
1693;SDS011;844;47.058;15.472;2023-05-10T15:07:40;6.20;;;5.70;;
1693;SDS011;844;47.058;15.472;2023-05-10T15:10:11;6.87;;;6.37;;
1693;SDS011;844;47.058;15.472;2023-05-10T15:12:41;7.40;;;6.80;;
1693;SDS011;844;47.058;15.472;2023-05-10T15:15:14;6.50;;;6.03;;
1693;SDS011;844;47.058;15.472;2023-05-10T15:17:44;5.93;;;5.53;;
1693;SDS011;844;47.058;15.472;2023-05-10T15:20:14;6.43;;;5.93;;
1693;SDS011;844;47.058;15.472;2023-05-10T15:22:44;7.03;;;6.53;;
1693;SDS011;844;47.058;15.472;2023-05-10T15:25:14;5.90;;;5.50;;
1693;SDS011;844;47.058;15.472;2023-05-10T15:27:44;5.20;;;4.80;;
1693;SDS011;844;47.058;15.472;2023-05-10T15:30:16;5.63;;;5.23;;
1693;SDS011;844;47.058;15.472;2023-05-10T15:32:46;4.80;;;4.30;;
1693;SDS011;844;47.058;15.472;2023-05-10T15:35:16;6.10;;;5.70;;
1693;SDS011;844;47.058;15.472;2023-05-10T15:37:48;5.80;;;5.30;;
1693;SDS011;844;47.058;15.472;2023-05-10T15:40:19;6.47;;;6.07;;
1693;SDS011;844;47.058;15.472;2023-05-10T15:42:49;5.33;;;5.00;;
1693;SDS011;844;47.058;15.472;2023-05-10T15:45:20;5.67;;;5.27;;
1693;SDS011;844;47.058;15.472;2023-05-10T15:47:50;5.63;;;5.27;;
1693;SDS011;844;47.058;15.472;2023-05-10T15:50:20;5.90;;;5.50;;
1693;SDS011;844;47.058;15.472;2023-05-10T15:52:51;6.13;;;5.67;;
1693;SDS011;844;47.058;15.472;2023-05-10T15:55:21;5.07;;;4.77;;
1693;SDS011;844;47.058;15.472;2023-05-10T15:57:50;6.20;;;5.80;;
1693;SDS011;844;47.058;15.472;2023-05-10T16:00:22;6.13;;;5.63;;
1693;SDS011;844;47.058;15.472;2023-05-10T16:02:53;5.17;;;4.83;;